createdAt,value
2018-02-19T00:00:21.892Z,96.64
2018-02-19T00:01:21.737Z,96.30
2018-02-19T00:02:21.805Z,96.73
2018-02-19T00:03:21.677Z,96.83
2018-02-19T00:04:21.715Z,96.54
2018-02-19T00:05:21.613Z,97.01
2018-02-19T00:06:21.628Z,96.83
2018-02-19T00:07:21.549Z,97.30
2018-02-19T00:08:21.651Z,97.11
2018-02-19T00:09:21.488Z,96.73
2018-02-19T00:10:21.557Z,96.26
2018-02-19T00:11:21.421Z,96.73
2018-02-19T00:12:21.464Z,96.35
2018-02-19T00:13:21.361Z,96.30
2018-02-19T00:14:21.374Z,96.87
2018-02-19T00:15:21.300Z,96.54
2018-02-19T00:16:21.386Z,95.73
2018-02-19T00:17:21.238Z,95.73
2018-02-19T00:18:21.303Z,95.45
2018-02-19T00:19:21.172Z,95.07
2018-02-19T00:20:21.212Z,94.70
2018-02-19T00:21:21.109Z,95.07
2018-02-19T00:22:21.122Z,95.36
2018-02-19T00:23:21.047Z,96.30
2018-02-19T00:24:21.141Z,96.78
2018-02-19T00:25:20.987Z,97.44
2018-02-19T00:26:21.048Z,98.19
2018-02-19T00:27:20.922Z,97.81
2018-02-19T00:28:20.960Z,98.10
2018-02-19T00:29:20.862Z,97.34
2018-02-19T00:30:20.973Z,96.87
2018-02-19T00:31:20.795Z,96.68
2018-02-19T00:32:20.886Z,96.59
2018-02-19T00:33:20.734Z,96.68
2018-02-19T00:34:20.797Z,97.34
2018-02-19T00:35:20.669Z,97.91
2018-02-19T00:36:20.710Z,97.81
2018-02-19T00:37:20.606Z,97.81
2018-02-19T00:38:20.724Z,98.28
2018-02-19T00:39:20.549Z,98.38
2018-02-19T00:40:20.636Z,98.28
2018-02-19T00:41:20.487Z,97.53
2018-02-19T00:42:20.548Z,97.63
2018-02-19T00:43:20.419Z,97.91
2018-02-19T00:44:20.463Z,97.44
2018-02-19T00:45:20.359Z,96.96
2018-02-19T00:46:20.471Z,96.59
2018-02-19T00:47:20.293Z,96.49
2018-02-19T00:48:20.385Z,97.34
2018-02-19T00:49:20.236Z,97.44
2018-02-19T00:50:20.303Z,97.06
2018-02-19T00:51:20.169Z,97.81
2018-02-19T00:52:20.207Z,98.00
2018-02-19T00:53:20.106Z,97.81
2018-02-19T00:54:20.221Z,97.81
2018-02-19T00:55:20.043Z,98.10
2018-02-19T00:56:20.129Z,97.81
2018-02-19T00:57:19.986Z,97.72
2018-02-19T00:58:20.044Z,97.91
2018-02-19T00:59:19.906Z,97.63
2018-02-19T01:00:20.060Z,97.81
2018-02-19T01:01:19.864Z,97.25
2018-02-19T01:02:19.968Z,97.34
2018-02-19T01:03:19.792Z,97.34
2018-02-19T01:04:19.880Z,97.34
2018-02-19T01:05:19.729Z,97.63
2018-02-19T01:06:19.795Z,97.53
2018-02-19T01:07:19.665Z,97.34
2018-02-19T01:08:19.804Z,96.96
2018-02-19T01:09:19.603Z,97.25
2018-02-19T01:10:19.718Z,96.96
2018-02-19T01:11:19.538Z,97.34
2018-02-19T01:12:19.622Z,97.34
2018-02-19T01:13:19.485Z,97.34
2018-02-19T01:14:19.541Z,97.34
2018-02-19T01:15:19.413Z,97.44
2018-02-19T01:16:19.557Z,97.34
2018-02-19T01:17:19.353Z,97.53
2018-02-19T01:18:19.464Z,97.06
2018-02-19T01:19:19.280Z,98.10
2018-02-19T01:20:19.376Z,98.28
2018-02-19T01:21:19.226Z,98.28
2018-02-19T01:22:19.289Z,98.47
2018-02-19T01:23:19.160Z,98.66
2018-02-19T01:24:19.302Z,98.47
2018-02-19T01:25:19.099Z,98.10
2018-02-19T01:26:19.215Z,98.00
2018-02-19T01:27:19.035Z,98.28
2018-02-19T01:28:19.126Z,97.91
2018-02-19T01:29:18.970Z,97.91
2018-02-19T01:30:19.038Z,97.91
2018-02-19T01:31:18.907Z,98.38
2018-02-19T01:32:19.049Z,98.76
2018-02-19T01:33:18.848Z,98.76
2018-02-19T01:34:18.957Z,98.57
2018-02-19T01:35:18.784Z,98.76
2018-02-19T01:36:18.873Z,98.66
2018-02-19T01:37:18.719Z,98.62
2018-02-19T01:38:18.789Z,98.81
2018-02-19T01:39:18.656Z,98.38
2018-02-19T01:40:18.799Z,98.81
2018-02-19T01:41:18.593Z,98.52
2018-02-19T01:42:18.712Z,98.62
2018-02-19T01:43:18.528Z,98.52
2018-02-19T01:44:18.623Z,98.05
2018-02-19T01:45:18.470Z,97.86
2018-02-19T01:46:18.636Z,98.14
2018-02-19T01:47:18.439Z,97.67
2018-02-19T01:48:18.549Z,98.14
2018-02-19T01:49:18.342Z,98.43
2018-02-19T01:50:18.458Z,98.52
2018-02-19T01:51:18.278Z,97.96
2018-02-19T01:52:18.369Z,97.67
2018-02-19T01:53:18.211Z,97.96
2018-02-19T01:54:18.375Z,97.01
2018-02-19T01:55:18.176Z,97.30
2018-02-19T01:56:18.349Z,97.86
2018-02-19T01:57:18.088Z,98.14
2018-02-19T01:58:18.208Z,98.47
2018-02-19T01:59:18.025Z,99.19
2018-02-19T02:00:18.120Z,99.23
2018-02-19T02:01:17.962Z,98.43
2018-02-19T02:02:18.135Z,98.57
2018-02-19T02:03:17.897Z,98.52
2018-02-19T02:04:18.050Z,98.05
2018-02-19T02:05:17.834Z,98.24
2018-02-19T02:06:18.003Z,98.05
2018-02-19T02:07:17.770Z,97.91
2018-02-19T02:08:17.866Z,97.34
2018-02-19T02:09:17.709Z,97.72
2018-02-19T02:10:17.889Z,97.63
2018-02-19T02:11:17.647Z,98.10
2018-02-19T02:12:17.690Z,98.00
2018-02-19T02:13:17.585Z,98.10
2018-02-19T02:14:17.606Z,97.81
2018-02-19T02:15:17.523Z,98.00
2018-02-19T02:16:17.517Z,98.19
2018-02-19T02:17:17.456Z,97.91
2018-02-19T02:18:17.531Z,98.00
2018-02-19T02:19:17.393Z,98.19
2018-02-19T02:20:17.439Z,98.28
2018-02-19T02:21:17.328Z,98.47
2018-02-19T02:22:17.351Z,98.66
2018-02-19T02:23:17.264Z,98.57
2018-02-19T02:24:17.262Z,98.47
2018-02-19T02:25:17.202Z,99.14
2018-02-19T02:26:17.276Z,98.95
2018-02-19T02:27:17.140Z,99.14
2018-02-19T02:28:17.188Z,98.85
2018-02-19T02:29:17.074Z,98.85
2018-02-19T02:30:17.100Z,99.42
2018-02-19T02:31:17.011Z,99.89
2018-02-19T02:32:17.112Z,99.42
2018-02-19T02:33:16.948Z,99.42
2018-02-19T02:34:17.028Z,99.61
2018-02-19T02:35:16.890Z,99.61
2018-02-19T02:36:16.940Z,99.33
2018-02-19T02:37:16.823Z,99.99
2018-02-19T02:38:16.847Z,99.80
2018-02-19T02:39:16.761Z,99.71
2018-02-19T02:40:16.864Z,99.61
2018-02-19T02:41:16.695Z,99.89
2018-02-19T02:42:16.773Z,99.80
2018-02-19T02:43:16.633Z,99.99
2018-02-19T02:44:16.686Z,99.80
2018-02-19T02:45:16.570Z,99.80
2018-02-19T02:46:16.602Z,99.89
2018-02-19T02:47:16.504Z,99.33
2018-02-19T02:48:16.604Z,99.89
2018-02-19T02:49:16.442Z,99.89
2018-02-19T02:50:16.522Z,99.71
2018-02-19T02:51:16.384Z,99.52
2018-02-19T02:52:16.432Z,99.80
2018-02-19T02:53:16.315Z,99.80
2018-02-19T02:54:16.346Z,99.71
2018-02-19T02:55:16.252Z,99.80
2018-02-19T02:56:16.360Z,99.99
2018-02-19T02:57:16.189Z,99.89
2018-02-19T02:58:16.273Z,99.99
2018-02-19T02:59:16.126Z,99.99
2018-02-19T03:00:16.182Z,99.52
2018-02-19T03:01:16.064Z,99.33
2018-02-19T03:02:16.090Z,99.04
2018-02-19T03:03:15.999Z,99.42
2018-02-19T03:04:16.107Z,99.61
2018-02-19T03:05:15.934Z,98.95
2018-02-19T03:06:16.020Z,99.14
2018-02-19T03:07:15.874Z,99.23
2018-02-19T03:08:15.930Z,99.71
2018-02-19T03:09:15.802Z,99.80
2018-02-19T03:10:15.838Z,99.52
2018-02-19T03:11:15.745Z,99.61
2018-02-19T03:12:15.857Z,99.99
2018-02-19T03:13:15.677Z,99.99
2018-02-19T03:14:15.767Z,99.99
2018-02-19T03:15:15.618Z,99.89
2018-02-19T03:16:15.678Z,99.89
2018-02-19T03:17:15.554Z,99.89
2018-02-19T03:18:15.589Z,99.99
2018-02-19T03:19:15.499Z,99.99
2018-02-19T03:20:15.608Z,99.99
2018-02-19T03:21:15.431Z,99.80
2018-02-19T03:22:15.510Z,99.99
2018-02-19T03:23:15.362Z,99.71
2018-02-19T03:24:15.428Z,99.99
2018-02-19T03:25:15.302Z,99.99
2018-02-19T03:26:15.441Z,99.99
2018-02-19T03:27:15.236Z,99.99
2018-02-19T03:28:15.353Z,99.99
2018-02-19T03:29:15.173Z,99.99
2018-02-19T03:30:15.265Z,99.99
2018-02-19T03:31:15.110Z,99.99
2018-02-19T03:32:15.177Z,99.99
2018-02-19T03:33:15.050Z,99.99
2018-02-19T03:34:15.190Z,99.99
2018-02-19T03:35:14.982Z,99.99
2018-02-19T03:36:15.100Z,99.99
2018-02-19T03:37:14.920Z,99.99
2018-02-19T03:38:15.013Z,99.99
2018-02-19T03:39:14.857Z,99.99
2018-02-19T03:40:14.918Z,99.99
2018-02-19T03:41:14.791Z,99.99
2018-02-19T03:42:14.939Z,99.99
2018-02-19T03:43:14.730Z,99.99
2018-02-19T03:44:14.849Z,99.99
2018-02-19T03:45:14.667Z,99.99
2018-02-19T03:46:14.762Z,99.99
2018-02-19T03:47:14.602Z,99.99
2018-02-19T03:48:14.673Z,99.99
2018-02-19T03:49:14.540Z,99.99
2018-02-19T03:50:14.690Z,99.99
2018-02-19T03:51:14.476Z,99.99
2018-02-19T03:52:14.497Z,99.99
2018-02-19T03:53:14.414Z,99.99
2018-02-19T03:54:14.510Z,99.99
2018-02-19T03:55:14.354Z,99.99
2018-02-19T03:56:14.425Z,99.99
2018-02-19T03:57:14.286Z,99.99
2018-02-19T03:58:14.450Z,99.99
2018-02-19T03:59:14.220Z,99.99
2018-02-19T04:00:14.348Z,99.99
2018-02-19T04:01:14.161Z,99.99
2018-02-19T04:02:14.256Z,99.99
2018-02-19T04:03:14.103Z,99.99
2018-02-19T04:04:14.169Z,99.99
2018-02-19T04:05:14.027Z,99.99
2018-02-19T04:06:14.192Z,99.99
2018-02-19T04:07:13.969Z,99.99
2018-02-19T04:08:14.098Z,99.99
2018-02-19T04:09:13.913Z,99.99
2018-02-19T04:10:14.009Z,99.99
2018-02-19T04:11:13.843Z,99.99
2018-02-19T04:12:13.919Z,99.99
2018-02-19T04:13:13.785Z,99.99
2018-02-19T04:14:13.939Z,99.99
2018-02-19T04:15:13.710Z,99.99
2018-02-19T04:16:13.846Z,99.99
2018-02-19T04:17:13.653Z,99.99
2018-02-19T04:18:13.756Z,99.99
2018-02-19T04:19:13.594Z,99.99
2018-02-19T04:20:13.770Z,99.99
2018-02-19T04:21:13.527Z,99.99
2018-02-19T04:22:13.686Z,99.99
2018-02-19T04:23:13.466Z,99.99
2018-02-19T04:24:13.592Z,99.99
2018-02-19T04:25:13.416Z,99.99
2018-02-19T04:26:13.504Z,99.99
2018-02-19T04:27:13.336Z,99.99
2018-02-19T04:28:13.518Z,99.99
2018-02-19T04:29:13.273Z,99.99
2018-02-19T04:30:13.428Z,99.99
2018-02-19T04:31:13.208Z,99.99
2018-02-19T04:32:13.341Z,99.99
2018-02-19T04:33:13.150Z,99.99
2018-02-19T04:34:13.168Z,99.99
2018-02-19T04:35:13.083Z,99.99
2018-02-19T04:36:13.165Z,99.99
2018-02-19T04:37:13.022Z,99.99
2018-02-19T04:38:13.077Z,99.99
2018-02-19T04:39:12.957Z,99.99
2018-02-19T04:40:12.988Z,99.99
2018-02-19T04:41:12.882Z,99.99
2018-02-19T04:42:12.927Z,99.99
2018-02-19T04:43:12.839Z,99.99
2018-02-19T04:44:12.914Z,99.99
2018-02-19T04:45:12.766Z,99.99
2018-02-19T04:46:12.823Z,99.99
2018-02-19T04:47:12.703Z,99.99
2018-02-19T04:48:12.735Z,99.99
2018-02-19T04:49:12.646Z,99.99
2018-02-19T04:50:12.646Z,99.99
2018-02-19T04:51:12.576Z,99.99
2018-02-19T04:52:12.665Z,99.99
2018-02-19T04:53:12.514Z,99.99
2018-02-19T04:54:12.570Z,99.99
2018-02-19T04:55:12.450Z,99.99
2018-02-19T04:56:12.487Z,99.99
2018-02-19T04:57:12.391Z,99.99
2018-02-19T04:58:12.399Z,99.99
2018-02-19T04:59:12.322Z,99.99
2018-02-19T05:00:12.411Z,99.99
2018-02-19T05:01:12.265Z,99.99
2018-02-19T05:02:12.323Z,99.99
2018-02-19T05:03:12.199Z,99.99
2018-02-19T05:04:12.236Z,99.99
2018-02-19T05:05:12.135Z,99.99
2018-02-19T05:06:12.247Z,99.99
2018-02-19T05:07:12.072Z,99.99
2018-02-19T05:08:12.158Z,99.99
2018-02-19T05:09:12.010Z,99.99
2018-02-19T05:10:12.071Z,99.99
2018-02-19T05:11:11.944Z,99.99
2018-02-19T05:12:11.978Z,99.99
2018-02-19T05:13:11.881Z,99.95
2018-02-19T05:14:11.997Z,99.99
2018-02-19T05:15:11.819Z,99.99
2018-02-19T05:16:11.909Z,99.99
2018-02-19T05:17:11.755Z,99.99
2018-02-19T05:18:11.818Z,99.95
2018-02-19T05:19:11.695Z,99.66
2018-02-19T05:20:11.731Z,99.85
2018-02-19T05:21:11.632Z,99.85
2018-02-19T05:22:11.743Z,99.85
2018-02-19T05:23:11.570Z,99.95
2018-02-19T05:24:11.656Z,99.66
2018-02-19T05:25:11.503Z,99.76
2018-02-19T05:26:11.568Z,99.99
2018-02-19T05:27:11.441Z,99.95
2018-02-19T05:28:11.582Z,99.76
2018-02-19T05:29:11.380Z,99.76
2018-02-19T05:30:11.491Z,99.95
2018-02-19T05:31:11.315Z,99.99
2018-02-19T05:32:11.406Z,99.95
2018-02-19T05:33:11.248Z,99.76
2018-02-19T05:34:11.320Z,99.85
2018-02-19T05:35:11.186Z,99.99
2018-02-19T05:36:11.229Z,99.99
2018-02-19T05:37:11.142Z,99.99
2018-02-19T05:38:11.244Z,99.57
2018-02-19T05:39:11.054Z,99.38
2018-02-19T05:40:11.154Z,99.99
2018-02-19T05:41:11.005Z,99.38
2018-02-19T05:42:11.067Z,99.76
2018-02-19T05:43:10.935Z,99.38
2018-02-19T05:44:10.978Z,99.47
2018-02-19T05:45:10.877Z,99.19
2018-02-19T05:46:10.992Z,98.90
2018-02-19T05:47:10.812Z,99.19
2018-02-19T05:48:10.902Z,99.09
2018-02-19T05:49:10.747Z,99.85
2018-02-19T05:50:10.812Z,99.85
2018-02-19T05:51:10.685Z,99.85
2018-02-19T05:52:10.824Z,99.85
2018-02-19T05:53:10.624Z,99.76
2018-02-19T05:54:10.732Z,99.85
2018-02-19T05:55:10.563Z,99.85
2018-02-19T05:56:10.648Z,99.99
2018-02-19T05:57:10.496Z,99.76
2018-02-19T05:58:10.564Z,99.85
2018-02-19T05:59:10.432Z,99.85
2018-02-19T06:00:10.582Z,99.95
2018-02-19T06:01:10.373Z,99.85
2018-02-19T06:02:10.486Z,99.85
2018-02-19T06:03:10.311Z,99.85
2018-02-19T06:04:10.399Z,99.85
2018-02-19T06:05:10.244Z,99.99
2018-02-19T06:06:10.315Z,99.99
2018-02-19T06:07:10.183Z,99.80
2018-02-19T06:08:10.323Z,99.99
2018-02-19T06:09:10.120Z,99.38
2018-02-19T06:10:10.233Z,99.99
2018-02-19T06:11:10.057Z,99.95
2018-02-19T06:12:10.146Z,99.00
2018-02-19T06:13:09.994Z,99.57
2018-02-19T06:14:10.057Z,99.57
2018-02-19T06:15:09.932Z,99.85
2018-02-19T06:16:10.071Z,99.57
2018-02-19T06:17:09.869Z,99.85
2018-02-19T06:18:09.982Z,99.47
2018-02-19T06:19:09.815Z,99.47
2018-02-19T06:20:09.900Z,99.66
2018-02-19T06:21:09.743Z,99.52
2018-02-19T06:22:09.909Z,99.38
2018-02-19T06:23:09.681Z,99.99
2018-02-19T06:24:09.818Z,99.85
2018-02-19T06:25:09.616Z,99.76
2018-02-19T06:26:09.732Z,99.76
2018-02-19T06:27:09.552Z,99.57
2018-02-19T06:28:09.644Z,98.90
2018-02-19T06:29:09.496Z,98.81
2018-02-19T06:30:09.658Z,99.38
2018-02-19T06:31:09.429Z,99.00
2018-02-19T06:32:09.567Z,99.38
2018-02-19T06:33:09.367Z,99.52
2018-02-19T06:34:09.479Z,99.80
2018-02-19T06:35:09.304Z,99.19
2018-02-19T06:36:09.395Z,99.09
2018-02-19T06:37:09.255Z,99.09
2018-02-19T06:38:09.405Z,99.76
2018-02-19T06:39:09.175Z,99.85
2018-02-19T06:40:09.316Z,99.85
2018-02-19T06:41:09.147Z,99.57
2018-02-19T06:42:09.229Z,99.66
2018-02-19T06:43:09.046Z,99.09
2018-02-19T06:44:09.140Z,99.33
2018-02-19T06:45:08.988Z,99.00
2018-02-19T06:46:09.153Z,99.24
2018-02-19T06:47:08.924Z,99.52
2018-02-19T06:48:09.065Z,99.76
2018-02-19T06:49:08.864Z,99.47
2018-02-19T06:50:08.976Z,99.00
2018-02-19T06:51:08.801Z,99.47
2018-02-19T06:52:08.888Z,98.96
2018-02-19T06:53:08.736Z,99.28
2018-02-19T06:54:08.900Z,98.86
2018-02-19T06:55:08.677Z,99.71
2018-02-19T06:56:08.811Z,99.66
2018-02-19T06:57:08.607Z,99.99
2018-02-19T06:58:08.623Z,99.99
2018-02-19T06:59:08.551Z,99.99
2018-02-19T07:00:08.638Z,99.99
2018-02-19T07:01:08.489Z,99.99
2018-02-19T07:02:08.547Z,99.99
2018-02-19T07:03:08.429Z,99.99
2018-02-19T07:04:08.460Z,99.99
2018-02-19T07:05:08.366Z,99.76
2018-02-19T07:06:08.373Z,99.38
2018-02-19T07:07:08.298Z,99.71
2018-02-19T07:08:08.384Z,99.52
2018-02-19T07:09:08.238Z,99.52
2018-02-19T07:10:08.293Z,99.05
2018-02-19T07:11:08.175Z,99.05
2018-02-19T07:12:08.208Z,99.33
2018-02-19T07:13:08.114Z,98.86
2018-02-19T07:14:08.243Z,99.43
2018-02-19T07:15:08.050Z,99.15
2018-02-19T07:16:08.133Z,98.86
2018-02-19T07:17:07.987Z,98.86
2018-02-19T07:18:08.046Z,98.86
2018-02-19T07:19:07.926Z,99.33
2018-02-19T07:20:07.956Z,98.86
2018-02-19T07:21:07.861Z,99.15
2018-02-19T07:22:07.969Z,99.24
2018-02-19T07:23:07.804Z,98.96
2018-02-19T07:24:07.882Z,99.15
2018-02-19T07:25:07.754Z,99.33
2018-02-19T07:26:07.801Z,98.96
2018-02-19T07:27:07.681Z,99.43
2018-02-19T07:28:07.698Z,99.05
2018-02-19T07:29:07.614Z,99.15
2018-02-19T07:30:07.723Z,99.15
2018-02-19T07:31:07.551Z,99.24
2018-02-19T07:32:07.630Z,98.86
2018-02-19T07:33:07.500Z,99.24
2018-02-19T07:34:07.541Z,99.15
2018-02-19T07:35:07.418Z,98.86
2018-02-19T07:36:07.452Z,98.86
2018-02-19T07:37:07.368Z,99.24
2018-02-19T07:38:07.467Z,98.77
2018-02-19T07:39:07.301Z,98.96
2018-02-19T07:40:07.378Z,99.33
2018-02-19T07:41:07.244Z,99.33
2018-02-19T07:42:07.289Z,99.33
2018-02-19T07:43:07.176Z,99.24
2018-02-19T07:44:07.306Z,99.24
2018-02-19T07:45:07.116Z,99.05
2018-02-19T07:46:07.215Z,99.24
2018-02-19T07:47:07.052Z,99.33
2018-02-19T07:48:07.127Z,98.86
2018-02-19T07:49:06.992Z,99.05
2018-02-19T07:50:07.056Z,98.86
2018-02-19T07:51:06.930Z,99.15
2018-02-19T07:52:07.054Z,98.96
2018-02-19T07:53:06.866Z,99.24
2018-02-19T07:54:06.964Z,99.15
2018-02-19T07:55:06.797Z,99.05
2018-02-19T07:56:06.877Z,99.15
2018-02-19T07:57:06.745Z,99.15
2018-02-19T07:58:06.737Z,98.48
2018-02-19T07:59:06.683Z,98.77
2018-02-19T08:00:06.800Z,98.96
2018-02-19T08:01:06.618Z,98.10
2018-02-19T08:02:06.715Z,98.48
2018-02-19T08:03:06.556Z,97.82
2018-02-19T08:04:06.627Z,98.01
2018-02-19T08:05:06.497Z,97.63
2018-02-19T08:06:06.538Z,97.82
2018-02-19T08:07:06.435Z,97.72
2018-02-19T08:08:06.550Z,97.06
2018-02-19T08:09:06.373Z,97.06
2018-02-19T08:10:06.474Z,97.44
2018-02-19T08:11:06.308Z,97.34
2018-02-19T08:12:06.372Z,97.16
2018-02-19T08:13:06.247Z,97.25
2018-02-19T08:14:06.388Z,97.53
2018-02-19T08:15:06.175Z,97.25
2018-02-19T08:16:06.298Z,97.06
2018-02-19T08:17:06.125Z,97.06
2018-02-19T08:18:06.212Z,97.44
2018-02-19T08:19:06.062Z,96.78
2018-02-19T08:20:06.121Z,96.78
2018-02-19T08:21:06.000Z,96.78
2018-02-19T08:22:06.135Z,96.40
2018-02-19T08:23:05.935Z,96.31
2018-02-19T08:24:06.044Z,96.69
2018-02-19T08:25:05.878Z,96.31
2018-02-19T08:26:05.956Z,96.40
2018-02-19T08:27:05.814Z,96.21
2018-02-19T08:28:05.868Z,96.50
2018-02-19T08:29:05.754Z,96.26
2018-02-19T08:30:05.897Z,96.12
2018-02-19T08:31:05.690Z,96.40
2018-02-19T08:32:05.793Z,96.40
2018-02-19T08:33:05.629Z,96.02
2018-02-19T08:34:05.708Z,96.40
2018-02-19T08:35:05.574Z,96.35
2018-02-19T08:36:05.720Z,96.35
2018-02-19T08:37:05.507Z,96.54
2018-02-19T08:38:05.631Z,96.45
2018-02-19T08:39:05.462Z,96.45
2018-02-19T08:40:05.545Z,96.26
2018-02-19T08:41:05.385Z,96.16
2018-02-19T08:42:05.451Z,96.07
2018-02-19T08:43:05.321Z,96.16
2018-02-19T08:44:05.385Z,96.54
2018-02-19T08:45:05.262Z,95.59
2018-02-19T08:46:05.381Z,95.69
2018-02-19T08:47:05.198Z,95.31
2018-02-19T08:48:05.283Z,95.21
2018-02-19T08:49:05.138Z,94.84
2018-02-19T08:50:05.297Z,94.65
2018-02-19T08:51:05.077Z,95.03
2018-02-19T08:52:05.222Z,94.37
2018-02-19T08:53:05.010Z,94.37
2018-02-19T08:54:05.129Z,93.89
2018-02-19T08:55:04.953Z,93.51
2018-02-19T08:56:04.937Z,93.99
2018-02-19T08:57:04.894Z,93.51
2018-02-19T08:58:05.054Z,93.23
2018-02-19T08:59:04.833Z,92.57
2018-02-19T09:00:04.964Z,92.76
2018-02-19T09:01:04.771Z,92.57
2018-02-19T09:02:04.876Z,92.66
2018-02-19T09:03:04.711Z,93.32
2018-02-19T09:04:04.897Z,93.13
2018-02-19T09:05:04.649Z,93.23
2018-02-19T09:06:04.803Z,92.38
2018-02-19T09:07:04.586Z,92.10
2018-02-19T09:08:04.616Z,92.29
2018-02-19T09:09:04.529Z,92.19
2018-02-19T09:10:04.628Z,92.76
2018-02-19T09:11:04.469Z,92.66
2018-02-19T09:12:04.642Z,92.57
2018-02-19T09:13:04.404Z,92.57
2018-02-19T09:14:04.551Z,92.29
2018-02-19T09:15:04.344Z,92.38
2018-02-19T09:16:04.466Z,92.38
2018-02-19T09:17:04.282Z,92.29
2018-02-19T09:18:04.372Z,92.00
2018-02-19T09:19:04.221Z,92.19
2018-02-19T09:20:04.386Z,92.00
2018-02-19T09:21:04.160Z,91.53
2018-02-19T09:22:04.199Z,92.10
2018-02-19T09:23:04.101Z,92.29
2018-02-19T09:24:04.102Z,92.00
2018-02-19T09:25:04.042Z,91.53
2018-02-19T09:26:04.123Z,91.81
2018-02-19T09:27:03.978Z,90.86
2018-02-19T09:28:04.033Z,91.34
2018-02-19T09:29:03.920Z,91.72
2018-02-19T09:30:03.944Z,91.53
2018-02-19T09:31:03.856Z,90.86
2018-02-19T09:32:03.855Z,91.05
2018-02-19T09:33:03.798Z,90.86
2018-02-19T09:34:03.893Z,90.39
2018-02-19T09:35:03.739Z,90.30
2018-02-19T09:36:03.780Z,90.15
2018-02-19T09:37:03.675Z,90.34
2018-02-19T09:38:03.693Z,90.44
2018-02-19T09:39:03.613Z,90.06
2018-02-19T09:40:03.704Z,90.25
2018-02-19T09:41:03.552Z,90.63
2018-02-19T09:42:03.619Z,89.39
2018-02-19T09:43:03.489Z,90.63
2018-02-19T09:44:03.461Z,89.87
2018-02-19T09:45:03.536Z,89.77
2018-02-19T09:46:03.411Z,90.06
2018-02-19T09:47:03.449Z,89.87
2018-02-19T09:48:03.342Z,89.01
2018-02-19T09:49:03.318Z,89.11
2018-02-19T09:50:03.283Z,89.49
2018-02-19T09:51:03.277Z,89.58
2018-02-19T09:52:03.225Z,89.87
2018-02-19T09:53:03.338Z,89.58
2018-02-19T09:54:03.161Z,89.68
2018-02-19T09:55:03.201Z,90.25
2018-02-19T09:56:03.099Z,90.25
2018-02-19T09:57:03.117Z,89.30
2018-02-19T09:58:03.047Z,90.15
2018-02-19T09:59:03.122Z,89.39
2018-02-19T10:00:02.981Z,89.39
2018-02-19T10:01:03.038Z,89.49
2018-02-19T10:02:02.918Z,89.49
2018-02-19T10:03:02.946Z,88.54
2018-02-19T10:04:02.863Z,88.54
2018-02-19T10:05:02.855Z,88.17
2018-02-19T10:06:02.800Z,88.07
2018-02-19T10:07:02.871Z,88.07
2018-02-19T10:08:02.742Z,88.17
2018-02-19T10:09:02.782Z,87.59
2018-02-19T10:10:02.695Z,88.26
2018-02-19T10:11:02.694Z,87.69
2018-02-19T10:12:02.655Z,87.98
2018-02-19T10:13:02.597Z,87.50
2018-02-19T10:14:02.560Z,88.54
2018-02-19T10:15:02.621Z,88.26
2018-02-19T10:16:02.505Z,87.69
2018-02-19T10:17:02.531Z,87.12
2018-02-19T10:18:02.441Z,88.07
2018-02-19T10:19:02.441Z,87.50
2018-02-19T10:20:02.385Z,87.88
2018-02-19T10:21:02.459Z,87.54
2018-02-19T10:22:02.316Z,86.74
2018-02-19T10:23:02.369Z,87.21
2018-02-19T10:24:02.260Z,87.21
2018-02-19T10:25:02.279Z,86.98
2018-02-19T10:26:02.202Z,86.50
2018-02-19T10:27:02.192Z,86.69
2018-02-19T10:28:02.143Z,86.88
2018-02-19T10:29:02.206Z,86.98
2018-02-19T10:30:02.082Z,87.26
2018-02-19T10:31:02.115Z,87.16
2018-02-19T10:32:02.023Z,87.35
2018-02-19T10:33:02.017Z,86.79
2018-02-19T10:34:01.966Z,87.07
2018-02-19T10:35:02.043Z,87.35
2018-02-19T10:36:01.916Z,87.07
2018-02-19T10:37:01.954Z,86.79
2018-02-19T10:38:01.845Z,86.88
2018-02-19T10:39:01.866Z,86.31
2018-02-19T10:40:01.782Z,85.74
2018-02-19T10:41:01.777Z,85.93
2018-02-19T10:42:01.729Z,85.84
2018-02-19T10:43:02.836Z,85.93
2018-02-19T10:44:01.679Z,86.22
2018-02-19T10:45:01.701Z,86.03
2018-02-19T10:46:01.607Z,86.12
2018-02-19T10:47:01.617Z,86.03
2018-02-19T10:48:01.548Z,86.50
2018-02-19T10:49:01.634Z,86.60
2018-02-19T10:50:01.487Z,86.31
2018-02-19T10:51:01.554Z,85.93
2018-02-19T10:52:01.430Z,85.74
2018-02-19T10:53:01.449Z,85.84
2018-02-19T10:54:01.419Z,86.03
2018-02-19T10:55:01.367Z,85.65
2018-02-19T10:56:01.311Z,85.84
2018-02-19T10:57:01.372Z,85.46
2018-02-19T10:58:01.255Z,86.12
2018-02-19T10:59:01.294Z,86.03
2018-02-19T11:00:01.197Z,86.69
2018-02-19T11:01:01.198Z,86.22
2018-02-19T11:02:01.140Z,86.12
2018-02-19T11:03:03.160Z,85.50
2018-02-19T11:04:01.074Z,84.89
2018-02-19T11:05:01.124Z,85.22
2018-02-19T11:06:01.022Z,85.69
2018-02-19T11:07:01.039Z,85.13
2018-02-19T11:08:00.959Z,84.94
2018-02-19T11:09:00.948Z,84.94
2018-02-19T11:10:00.905Z,84.55
2018-02-19T11:11:00.963Z,84.46
2018-02-19T11:12:00.845Z,84.55
2018-02-19T11:13:00.876Z,84.55
2018-02-19T11:14:00.788Z,83.98
2018-02-19T11:15:00.784Z,84.08
2018-02-19T11:16:00.728Z,83.98
2018-02-19T11:17:00.798Z,84.55
2018-02-19T11:18:00.670Z,84.65
2018-02-19T11:19:00.712Z,84.84
2018-02-19T11:20:00.612Z,85.31
2018-02-19T11:21:00.620Z,84.84
2018-02-19T11:22:00.553Z,85.03
2018-02-19T11:23:00.634Z,84.36
2018-02-19T11:24:00.496Z,83.42
2018-02-19T11:25:00.544Z,83.32
2018-02-19T11:26:00.439Z,83.04
2018-02-19T11:27:00.457Z,83.51
2018-02-19T11:28:00.381Z,83.23
2018-02-19T11:29:00.369Z,82.28
2018-02-19T11:30:00.321Z,82.37
2018-02-19T11:31:00.381Z,82.37
2018-02-19T11:32:00.265Z,82.09
2018-02-19T11:33:00.296Z,82.28
2018-02-19T11:34:00.213Z,82.09
2018-02-19T11:35:00.199Z,82.18
2018-02-19T11:36:00.152Z,82.51
2018-02-19T11:37:00.218Z,82.98
2018-02-19T11:38:00.094Z,82.32
2018-02-19T11:39:00.132Z,81.47
2018-02-19T11:40:00.035Z,81.47
2018-02-19T11:41:00.043Z,80.90
2018-02-19T11:41:59.979Z,81.37
2018-02-19T11:43:00.056Z,80.99
2018-02-19T11:43:59.933Z,80.84
2018-02-19T11:44:59.969Z,79.14
2018-02-19T11:45:59.866Z,78.66
2018-02-19T11:46:59.878Z,79.14
2018-02-19T11:47:59.807Z,78.56
2018-02-19T11:48:59.894Z,78.56
2018-02-19T11:49:59.751Z,78.80
2018-02-19T11:50:59.805Z,76.80
2018-02-19T11:51:59.698Z,76.42
2018-02-19T11:52:59.757Z,75.85
2018-02-19T11:53:59.640Z,75.85
2018-02-19T11:54:59.627Z,76.52
2018-02-19T11:55:59.586Z,76.61
2018-02-19T11:56:59.641Z,77.18
2018-02-19T11:57:59.534Z,77.84
2018-02-19T11:58:59.552Z,78.42
2018-02-19T11:59:59.486Z,76.32
2018-02-19T12:00:59.466Z,76.46
2018-02-19T12:01:59.424Z,75.79
2018-02-19T12:02:59.479Z,74.27
2018-02-19T12:03:59.376Z,73.52
2018-02-19T12:04:59.393Z,73.33
2018-02-19T12:05:59.326Z,73.74
2018-02-19T12:06:59.300Z,72.99
2018-02-19T12:07:59.260Z,72.51
2018-02-19T12:08:59.315Z,72.13
2018-02-19T12:09:59.211Z,71.66
2018-02-19T12:10:59.228Z,72.22
2018-02-19T12:11:59.163Z,72.41
2018-02-19T12:12:59.240Z,71.88
2018-02-19T12:13:59.101Z,72.74
2018-02-19T12:14:59.152Z,71.31
2018-02-19T12:15:59.057Z,70.45
2018-02-19T12:16:59.063Z,69.41
2018-02-19T12:17:59.007Z,69.88
2018-02-19T12:18:59.078Z,69.79
2018-02-19T12:19:58.956Z,69.63
2018-02-19T12:20:58.988Z,70.58
2018-02-19T12:21:58.911Z,69.82
2018-02-19T12:22:58.911Z,68.55
2018-02-19T12:23:58.858Z,69.63
2018-02-19T12:24:58.915Z,70.54
2018-02-19T12:25:58.809Z,69.98
2018-02-19T12:26:58.827Z,69.79
2018-02-19T12:27:58.764Z,69.50
2018-02-19T12:28:58.842Z,68.46
2018-02-19T12:29:58.716Z,69.88
2018-02-19T12:30:58.751Z,71.12
2018-02-19T12:31:58.669Z,71.59
2018-02-19T12:32:58.667Z,70.36
2018-02-19T12:33:58.622Z,70.17
2018-02-19T12:34:58.681Z,69.50
2018-02-19T12:35:58.573Z,69.09
2018-02-19T12:36:58.592Z,69.09
2018-02-19T12:37:58.526Z,70.51
2018-02-19T12:38:58.608Z,70.13
2018-02-19T12:39:58.475Z,71.66
2018-02-19T12:40:58.516Z,71.12
2018-02-19T12:41:58.431Z,71.12
2018-02-19T12:42:58.423Z,72.45
2018-02-19T12:43:58.380Z,72.55
2018-02-19T12:44:58.440Z,70.77
2018-02-19T12:45:58.331Z,69.63
2018-02-19T12:46:58.346Z,68.77
2018-02-19T12:47:58.283Z,69.25
2018-02-19T12:48:58.365Z,68.11
2018-02-19T12:49:58.239Z,67.16
2018-02-19T12:50:58.283Z,67.92
2018-02-19T12:51:58.188Z,68.49